Time;durP1;ratioP1;P1;durP2;ratioP2;P2;SDS_P1;SDS_P2;PMS_P1;PMS_P2;Temp;Humidity;BMP_temperature;BMP_pressure;BME280_temperature;BME280_humidity;BME280_pressure;Samples;Min_cycle;Max_cycle;Signal;HPM_P1;HPM_P2
2022/10/17 00:01:53;;;;;;;7.63;4.82;;;16.80;99.60;;;;;;5036270;28;20024;-74
2022/10/17 00:04:21;;;;;;;8.38;4.85;;;16.80;99.70;;;;;;5036066;28;20432;-74
2022/10/17 00:06:47;;;;;;;8.68;5.45;;;16.80;99.70;;;;;;5035933;28;20018;-74
2022/10/17 00:09:14;;;;;;;8.00;5.65;;;16.70;99.70;;;;;;5036017;28;20103;-73
2022/10/17 00:11:40;;;;;;;9.32;5.50;;;16.70;99.90;;;;;;5035781;28;20503;-74
2022/10/17 00:14:05;;;;;;;9.13;4.82;;;16.60;99.90;;;;;;5035688;28;20033;-74
2022/10/17 00:16:35;;;;;;;8.55;5.00;;;16.60;99.90;;;;;;5036067;28;20032;-73
2022/10/17 00:19:02;;;;;;;9.65;5.05;;;16.60;99.90;;;;;;5036223;28;20030;-75
2022/10/17 00:21:27;;;;;;;7.50;5.53;;;16.60;99.90;;;;;;5036206;28;20032;-75
2022/10/17 00:23:56;;;;;;;6.78;5.53;;;16.70;99.90;;;;;;5036048;28;20037;-75
2022/10/17 00:26:22;;;;;;;10.70;5.10;;;16.60;99.90;;;;;;5034930;28;20018;-75
2022/10/17 00:28:48;;;;;;;9.82;4.97;;;16.60;99.90;;;;;;5035552;28;20417;-75
2022/10/17 00:31:16;;;;;;;7.35;5.32;;;16.60;99.90;;;;;;5036153;28;20017;-75
2022/10/17 00:33:42;;;;;;;8.30;4.78;;;16.60;99.90;;;;;;5036051;28;20018;-75
2022/10/17 00:36:15;;;;;;;8.13;5.00;;;16.70;99.90;;;;;;5042889;28;20029;-75
2022/10/17 00:38:43;;;;;;;9.00;5.22;;;16.70;99.90;;;;;;5059401;28;20010;-75
2022/10/17 00:41:12;;;;;;;6.50;5.30;;;16.80;99.90;;;;;;5047573;28;20096;-75
2022/10/17 00:43:54;;;;;;;8.88;5.90;;;16.70;99.90;;;;;;5035296;28;20033;-75
2022/10/17 00:46:21;;;;;;;9.18;6.20;;;16.70;99.90;;;;;;5035756;28;20030;-75
2022/10/17 00:48:49;;;;;;;9.70;5.80;;;16.70;99.90;;;;;;5035082;28;20022;-75
2022/10/17 00:51:18;;;;;;;8.77;6.22;;;16.70;99.90;;;;;;5035446;28;20059;-75
2022/10/17 00:53:44;;;;;;;9.05;6.03;;;16.60;99.90;;;;;;5035366;28;20025;-75
2022/10/17 00:56:18;;;;;;;8.52;5.50;;;16.70;99.90;;;;;;5035260;28;20040;-74
2022/10/17 00:58:43;;;;;;;7.72;5.20;;;16.70;99.90;;;;;;5035110;28;20075;-74
2022/10/17 01:01:09;;;;;;;9.13;5.28;;;16.60;99.90;;;;;;5035138;28;20025;-73
2022/10/17 01:03:35;;;;;;;7.07;5.15;;;16.70;99.90;;;;;;5035158;28;20068;-73
2022/10/17 01:06:00;;;;;;;8.90;6.00;;;16.70;99.90;;;;;;5035130;28;20060;-73
2022/10/17 01:08:29;;;;;;;7.53;5.82;;;16.70;99.90;;;;;;5035179;28;20101;-73
2022/10/17 01:11:07;;;;;;;9.00;5.30;;;16.80;99.90;;;;;;5034958;28;20061;-73
2022/10/17 01:13:42;;;;;;;7.20;5.35;;;16.70;99.90;;;;;;5034850;28;20056;-72
2022/10/17 01:16:12;;;;;;;6.90;5.45;;;16.70;99.90;;;;;;5035018;28;20036;-72
2022/10/17 01:18:58;;;;;;;11.40;5.95;;;16.70;99.90;;;;;;5034967;28;20032;-72
2022/10/17 01:21:24;;;;;;;8.90;6.25;;;16.60;99.90;;;;;;5034270;28;20053;-72
2022/10/17 01:24:31;;;;;;;8.63;5.75;;;16.70;99.90;;;;;;5034542;28;20469;-72
2022/10/17 01:27:33;;;;;;;8.15;5.97;;;16.60;99.90;;;;;;5024270;28;20095;-73
2022/10/17 01:30:29;;;;;;;7.85;6.30;;;16.70;99.90;;;;;;5034306;28;20044;-73
2022/10/17 01:33:09;;;;;;;10.48;6.82;;;16.70;99.90;;;;;;5036147;28;20385;-71
2022/10/17 01:36:04;;;;;;;7.97;5.32;;;16.70;99.90;;;;;;5048297;28;20030;-73
2022/10/17 01:38:41;;;;;;;7.65;5.85;;;16.70;99.90;;;;;;5037771;28;20025;-73
2022/10/17 01:41:35;;;;;;;5.90;5.30;;;16.60;99.90;;;;;;5034283;28;20029;-73
2022/10/17 01:44:07;;;;;;;9.18;6.70;;;16.70;99.90;;;;;;5031606;28;20507;-72
2022/10/17 01:46:39;;;;;;;7.85;6.07;;;16.60;99.90;;;;;;5034405;28;20096;-73
2022/10/17 01:49:09;;;;;;;7.77;5.83;;;16.60;99.90;;;;;;5034551;28;20033;-72
2022/10/17 01:51:43;;;;;;;7.10;6.40;;;16.60;99.90;;;;;;5034083;28;20120;-72
2022/10/17 01:54:23;;;;;;;9.55;6.25;;;16.60;99.90;;;;;;5034200;28;20029;-74
2022/10/17 01:56:52;;;;;;;10.20;6.35;;;16.60;99.90;;;;;;5034032;28;20026;-73
2022/10/17 01:59:24;;;;;;;9.75;6.80;;;16.60;99.90;;;;;;5034198;28;20052;-73
2022/10/17 02:01:52;;;;;;;9.85;6.70;;;16.60;99.90;;;;;;5034188;28;20095;-73
2022/10/17 02:04:19;;;;;;;9.93;7.15;;;16.60;99.90;;;;;;5033927;28;20111;-73
2022/10/17 02:06:44;;;;;;;8.20;6.70;;;16.50;99.90;;;;;;5033831;28;20026;-74
2022/10/17 02:09:18;;;;;;;10.18;7.75;;;16.50;99.90;;;;;;5033975;28;20104;-73
2022/10/17 02:12:08;;;;;;;9.10;7.47;;;16.60;99.90;;;;;;5033933;28;20043;-73
2022/10/17 02:14:39;;;;;;;11.15;7.30;;;16.50;99.90;;;;;;5033743;28;20021;-73
2022/10/17 02:17:26;;;;;;;7.97;6.90;;;16.50;99.90;;;;;;5033962;28;20030;-73
2022/10/17 02:20:05;;;;;;;8.90;6.80;;;16.60;99.90;;;;;;5033413;28;20021;-73
2022/10/17 02:22:55;;;;;;;10.90;7.55;;;16.60;99.90;;;;;;5033520;28;20041;-73
2022/10/17 02:25:44;;;;;;;8.43;7.07;;;16.60;99.90;;;;;;5033871;28;20416;-73
2022/10/17 02:28:42;;;;;;;9.50;7.35;;;16.60;99.90;;;;;;5033326;28;20401;-72
2022/10/17 02:31:16;;;;;;;12.50;6.75;;;16.60;99.90;;;;;;5049659;28;20045;-73
2022/10/17 02:33:57;;;;;;;9.52;7.13;;;16.60;99.90;;;;;;5035746;28;20351;-73
2022/10/17 02:36:27;;;;;;;9.95;6.55;;;16.60;99.90;;;;;;5033558;28;20021;-73
2022/10/17 02:38:55;;;;;;;7.78;6.93;;;16.60;99.90;;;;;;5033392;28;20027;-73
2022/10/17 02:41:22;;;;;;;10.93;7.68;;;16.70;99.90;;;;;;5033465;28;20099;-74
2022/10/17 02:43:49;;;;;;;11.10;9.13;;;16.60;99.90;;;;;;5033079;28;20038;-75
2022/10/17 02:46:21;;;;;;;9.82;7.45;;;16.60;99.90;;;;;;5033284;28;20481;-75
2022/10/17 02:49:17;;;;;;;10.27;7.77;;;16.60;99.90;;;;;;5033655;28;20033;-75
2022/10/17 02:52:16;;;;;;;11.73;8.23;;;16.70;99.90;;;;;;5040093;28;20095;-75
2022/10/17 02:55:09;;;;;;;10.10;8.65;;;16.60;99.90;;;;;;5040107;28;20377;-75
2022/10/17 02:57:42;;;;;;;12.13;8.55;;;16.50;99.90;;;;;;5039686;28;20033;-75
2022/10/17 03:00:10;;;;;;;;;;;16.50;99.90;;;;;;5040178;28;20096;-75
2022/10/17 03:02:53;;;;;;;10.63;7.50;;;16.40;99.90;;;;;;5039546;28;20400;-75
2022/10/17 03:05:25;;;;;;;11.23;8.05;;;16.50;99.90;;;;;;5039779;28;20034;-75
2022/10/17 03:07:52;;;;;;;9.90;7.65;;;16.50;99.90;;;;;;5040271;28;20025;-75
2022/10/17 03:10:18;;;;;;;11.00;8.20;;;16.60;99.90;;;;;;5039857;28;20029;-75
2022/10/17 03:12:44;;;;;;;11.43;7.25;;;16.60;99.90;;;;;;5039637;28;20512;-74
2022/10/17 03:15:10;;;;;;;8.57;7.57;;;16.60;99.90;;;;;;5039286;28;20105;-75
2022/10/17 03:17:36;;;;;;;11.45;7.93;;;16.70;99.90;;;;;;5039777;28;20021;-75
2022/10/17 03:20:04;;;;;;;9.82;7.72;;;16.70;99.90;;;;;;5039546;28;20466;-75
2022/10/17 03:22:32;;;;;;;9.77;7.60;;;16.70;99.90;;;;;;5040806;28;20053;-75
2022/10/17 03:24:58;;;;;;;10.25;7.72;;;16.70;99.90;;;;;;5045501;28;20116;-73
2022/10/17 03:27:23;;;;;;;10.40;7.75;;;16.70;99.90;;;;;;5059251;28;20096;-75
2022/10/17 03:29:49;;;;;;;10.80;7.60;;;16.70;99.90;;;;;;5048839;28;20035;-75
2022/10/17 03:32:15;;;;;;;8.77;6.90;;;16.80;99.90;;;;;;5039249;28;20083;-75
2022/10/17 03:34:40;;;;;;;10.27;6.57;;;16.80;99.90;;;;;;5039736;28;20029;-75
2022/10/17 03:37:06;;;;;;;9.00;6.63;;;16.80;99.90;;;;;;5039520;28;20504;-73
2022/10/17 03:39:31;;;;;;;8.35;6.90;;;16.80;99.90;;;;;;5038449;28;20038;-73
2022/10/17 03:42:00;;;;;;;9.85;6.90;;;16.90;99.90;;;;;;5039577;28;20485;-74
2022/10/17 03:44:25;;;;;;;8.50;6.95;;;16.80;99.90;;;;;;5038987;28;20076;-73
2022/10/17 03:46:51;;;;;;;12.27;6.60;;;16.80;99.90;;;;;;5039700;28;20431;-73
2022/10/17 03:49:16;;;;;;;9.45;7.03;;;16.90;99.90;;;;;;5039476;28;20025;-73
2022/10/17 03:51:42;;;;;;;7.88;6.35;;;16.90;99.90;;;;;;5039122;28;20022;-74
2022/10/17 03:54:07;;;;;;;11.95;6.88;;;16.90;99.90;;;;;;5039392;28;20053;-73
2022/10/17 03:56:33;;;;;;;7.97;6.40;;;16.90;99.90;;;;;;5039423;28;20040;-73
2022/10/17 03:58:59;;;;;;;8.48;5.95;;;16.90;99.90;;;;;;5039166;28;20032;-73
2022/10/17 04:01:24;;;;;;;8.77;6.65;;;17.00;99.90;;;;;;5036802;28;20521;-73
2022/10/17 04:03:54;;;;;;;11.85;6.88;;;17.00;99.90;;;;;;5036252;28;20034;-73
2022/10/17 04:06:21;;;;;;;10.95;6.22;;;17.00;99.90;;;;;;5035924;28;20477;-73
2022/10/17 04:08:49;;;;;;;8.98;6.30;;;17.00;99.90;;;;;;5035771;28;20045;-73
2022/10/17 04:11:20;;;;;;;10.52;6.55;;;17.00;99.90;;;;;;5036166;28;20354;-73
2022/10/17 04:13:46;;;;;;;7.90;6.63;;;17.00;99.90;;;;;;5036011;28;20036;-73
2022/10/17 04:16:14;;;;;;;8.07;6.18;;;17.00;99.90;;;;;;5035872;28;20116;-74
2022/10/17 04:18:40;;;;;;;7.93;7.10;;;17.00;99.90;;;;;;5036208;28;20033;-75
2022/10/17 04:21:06;;;;;;;10.38;6.78;;;17.00;99.90;;;;;;5040663;28;20030;-73
2022/10/17 04:23:33;;;;;;;8.57;7.40;;;17.00;99.90;;;;;;5056278;28;20040;-72
2022/10/17 04:26:00;;;;;;;9.23;7.65;;;17.00;99.90;;;;;;5035833;28;20477;-72
2022/10/17 04:28:26;;;;;;;8.38;6.70;;;17.00;99.90;;;;;;5035507;28;20563;-73
2022/10/17 04:30:56;;;;;;;7.85;6.95;;;17.00;99.90;;;;;;5035832;28;20393;-72
2022/10/17 04:33:22;;;;;;;7.70;6.90;;;17.00;99.90;;;;;;5035895;28;20026;-71
2022/10/17 04:35:58;;;;;;;11.82;8.30;;;16.90;99.90;;;;;;5035172;28;20157;-72
2022/10/17 04:38:24;;;;;;;7.40;5.88;;;16.90;99.90;;;;;;5035539;28;20377;-71
2022/10/17 04:40:49;;;;;;;8.73;5.90;;;16.90;99.90;;;;;;5035568;28;20030;-71
2022/10/17 04:43:15;;;;;;;11.75;6.90;;;17.00;99.90;;;;;;5035493;28;20076;-71
2022/10/17 04:45:40;;;;;;;10.13;6.60;;;17.00;99.90;;;;;;5035277;28;20107;-71
2022/10/17 04:48:06;;;;;;;7.45;5.97;;;17.00;99.90;;;;;;5034997;28;20021;-71
2022/10/17 04:50:32;;;;;;;7.35;6.00;;;17.00;99.90;;;;;;5035284;28;20036;-72
2022/10/17 04:52:58;;;;;;;9.52;7.05;;;17.10;99.90;;;;;;5035153;28;20053;-71
2022/10/17 04:55:23;;;;;;;7.10;6.05;;;17.10;99.90;;;;;;5035511;28;20029;-72
2022/10/17 04:57:49;;;;;;;8.65;6.20;;;17.10;99.90;;;;;;5035115;28;20067;-70
2022/10/17 05:00:14;;;;;;;8.38;5.47;;;17.10;99.90;;;;;;5035045;28;20457;-73
2022/10/17 05:02:40;;;;;;;8.15;5.63;;;17.10;99.90;;;;;;5035130;28;20022;-72
2022/10/17 05:05:06;;;;;;;8.10;5.13;;;17.10;99.90;;;;;;5035021;28;20428;-73
2022/10/17 05:07:32;;;;;;;6.28;4.43;;;17.20;99.90;;;;;;5034719;28;20041;-72
2022/10/17 05:09:57;;;;;;;5.90;4.95;;;17.30;99.90;;;;;;5034556;28;20472;-75
2022/10/17 05:12:23;;;;;;;6.57;5.38;;;17.30;99.90;;;;;;5034707;28;20083;-73
2022/10/17 05:14:49;;;;;;;8.98;5.00;;;17.30;99.90;;;;;;5034633;28;20021;-74
2022/10/17 05:17:15;;;;;;;6.18;5.47;;;17.30;99.90;;;;;;5034675;28;20037;-71
2022/10/17 05:19:40;;;;;;;7.80;5.40;;;17.30;99.90;;;;;;5044720;28;20032;-74
2022/10/17 05:22:06;;;;;;;8.00;5.18;;;17.30;99.90;;;;;;5034735;28;20036;-74
2022/10/17 05:24:32;;;;;;;5.90;4.30;;;17.40;99.90;;;;;;5034764;28;20033;-74
2022/10/17 05:26:57;;;;;;;7.25;4.15;;;17.40;99.90;;;;;;5034610;28;20041;-73
2022/10/17 05:29:23;;;;;;;6.10;4.78;;;17.40;99.90;;;;;;5034543;28;20412;-73
2022/10/17 05:31:48;;;;;;;7.60;5.15;;;17.40;99.90;;;;;;5034427;28;20029;-73
2022/10/17 05:34:14;;;;;;;8.95;5.70;;;17.40;99.90;;;;;;5034540;28;20056;-73
2022/10/17 05:36:39;;;;;;;8.02;5.78;;;17.40;99.90;;;;;;5033258;28;20174;-73
2022/10/17 05:39:05;;;;;;;6.70;5.78;;;17.40;99.90;;;;;;5034068;28;20026;-73
2022/10/17 05:41:30;;;;;;;8.48;5.32;;;17.40;99.90;;;;;;5034564;28;20518;-76
2022/10/17 05:43:56;;;;;;;6.72;4.72;;;17.40;99.90;;;;;;5034065;28;20029;-75
2022/10/17 05:46:23;;;;;;;8.10;5.18;;;17.40;99.90;;;;;;5034386;28;20025;-76
2022/10/17 05:48:49;;;;;;;7.60;5.68;;;17.40;99.90;;;;;;5034348;28;20074;-76
2022/10/17 05:51:14;;;;;;;8.90;5.15;;;17.40;99.90;;;;;;5033899;28;20483;-77
2022/10/17 05:53:43;;;;;;;6.68;4.25;;;17.40;99.90;;;;;;5034162;28;20029;-77
2022/10/17 05:56:11;;;;;;;4.68;3.95;;;17.40;99.90;;;;;;5034280;28;20029;-75
2022/10/17 05:58:44;;;;;;;7.88;4.40;;;17.40;99.90;;;;;;5034146;28;20025;-75
2022/10/17 06:01:11;;;;;;;;;;;17.40;99.90;;;;;;5034313;28;20099;-75
2022/10/17 06:03:36;;;;;;;9.65;4.15;;;17.40;99.90;;;;;;5033683;28;19913;-75
2022/10/17 06:06:07;;;;;;;6.68;4.55;;;17.50;99.90;;;;;;5034558;28;20026;-77
2022/10/17 06:08:33;;;;;;;7.60;5.47;;;17.50;99.90;;;;;;5042231;28;20037;-76
2022/10/17 06:10:59;;;;;;;8.32;5.05;;;17.40;99.90;;;;;;5045976;28;20021;-76
2022/10/17 06:13:28;;;;;;;5.40;4.88;;;17.50;99.90;;;;;;5039656;28;20029;-75
2022/10/17 06:16:00;;;;;;;6.93;5.07;;;17.40;99.90;;;;;;5053523;28;20026;-77
2022/10/17 06:18:26;;;;;;;8.88;5.78;;;17.40;99.90;;;;;;5035364;28;20029;-77
2022/10/17 06:20:52;;;;;;;9.20;5.57;;;17.40;99.90;;;;;;5033880;28;20496;-79
2022/10/17 06:23:18;;;;;;;11.25;6.07;;;17.30;99.90;;;;;;5033751;28;20046;-78
2022/10/17 06:25:43;;;;;;;6.68;5.68;;;17.30;99.90;;;;;;5033137;28;20414;-77
2022/10/17 06:28:10;;;;;;;10.77;7.35;;;17.20;99.90;;;;;;5039141;28;20151;-77
2022/10/17 06:30:39;;;;;;;7.93;6.30;;;17.20;99.90;;;;;;5045822;28;20037;-77
2022/10/17 06:33:05;;;;;;;8.73;6.55;;;17.20;99.90;;;;;;5033076;28;20056;-77
2022/10/17 06:35:31;;;;;;;10.63;6.35;;;17.10;99.90;;;;;;5046331;28;20198;-79
2022/10/17 06:37:56;;;;;;;8.18;5.40;;;17.20;99.90;;;;;;5044227;28;20040;-77
2022/10/17 06:40:22;;;;;;;11.57;6.95;;;17.20;99.90;;;;;;5029275;28;20041;-76
2022/10/17 06:42:48;;;;;;;9.95;6.30;;;17.20;99.90;;;;;;5036846;28;20017;-77
2022/10/17 06:45:14;;;;;;;7.55;5.70;;;17.20;99.90;;;;;;5044834;28;20040;-76
2022/10/17 06:47:39;;;;;;;9.02;7.10;;;17.20;99.90;;;;;;5046877;28;20025;-76
2022/10/17 06:50:06;;;;;;;8.40;6.93;;;17.20;99.90;;;;;;5033186;28;20421;-75
2022/10/17 06:52:31;;;;;;;8.55;7.03;;;17.20;99.90;;;;;;5034113;28;20440;-77
2022/10/17 06:54:57;;;;;;;7.07;6.38;;;17.20;99.90;;;;;;5043396;28;20022;-76
2022/10/17 06:57:22;;;;;;;10.02;6.47;;;17.20;99.90;;;;;;5040252;28;20032;-76
2022/10/17 06:59:48;;;;;;;11.20;6.32;;;17.20;99.90;;;;;;5034481;28;20018;-75
2022/10/17 07:02:14;;;;;;;11.30;6.75;;;17.30;99.90;;;;;;5045413;28;20034;-76
2022/10/17 07:04:39;;;;;;;8.15;6.68;;;17.30;99.90;;;;;;5049544;28;20039;-76
2022/10/17 07:07:05;;;;;;;11.02;5.45;;;17.30;99.90;;;;;;5048387;28;20432;-77
2022/10/17 07:09:31;;;;;;;9.02;5.18;;;17.30;99.90;;;;;;5040567;28;20120;-75
2022/10/17 07:11:58;;;;;;;10.35;5.55;;;17.40;99.90;;;;;;5062294;28;20021;-75
2022/10/17 07:14:30;;;;;;;9.48;5.65;;;17.40;99.90;;;;;;5036325;28;20107;-76
2022/10/17 07:16:59;;;;;;;7.10;5.65;;;17.50;99.90;;;;;;5033166;28;20064;-76
2022/10/17 07:19:25;;;;;;;6.05;4.85;;;17.50;99.90;;;;;;5032685;28;20085;-77
2022/10/17 07:21:52;;;;;;;8.13;6.05;;;17.50;99.90;;;;;;5033133;28;20036;-76
2022/10/17 07:24:20;;;;;;;8.25;6.05;;;17.50;99.90;;;;;;5032843;28;20033;-77
2022/10/17 07:26:46;;;;;;;9.55;6.15;;;17.60;99.90;;;;;;5032774;28;20026;-77
2022/10/17 07:29:11;;;;;;;9.30;5.72;;;17.50;99.90;;;;;;5032421;28;20045;-77
2022/10/17 07:31:37;;;;;;;8.70;5.50;;;17.60;99.90;;;;;;5036364;28;20036;-77
2022/10/17 07:34:03;;;;;;;5.65;4.80;;;17.60;99.90;;;;;;5044764;28;20139;-76
2022/10/17 07:36:28;;;;;;;10.32;6.05;;;17.60;99.90;;;;;;5050392;28;20094;-77
2022/10/17 07:38:54;;;;;;;8.68;5.82;;;17.70;99.90;;;;;;5048611;28;20079;-76
2022/10/17 07:41:20;;;;;;;8.15;5.97;;;17.70;99.90;;;;;;5050612;28;20017;-76
2022/10/17 07:43:45;;;;;;;8.85;5.03;;;17.70;99.90;;;;;;5050801;28;20519;-77
2022/10/17 07:46:11;;;;;;;11.38;6.10;;;17.80;99.90;;;;;;5054033;28;20021;-77
2022/10/17 07:48:38;;;;;;;10.70;5.57;;;17.80;99.90;;;;;;5046135;28;20033;-76
2022/10/17 07:51:06;;;;;;;9.45;5.55;;;17.80;99.90;;;;;;5049483;28;20092;-78
2022/10/17 07:53:35;;;;;;;8.07;6.38;;;17.80;99.90;;;;;;5050250;28;20488;-77
2022/10/17 07:56:04;;;;;;;8.00;5.53;;;17.90;99.90;;;;;;5043293;28;20026;-78
2022/10/17 07:58:30;;;;;;;6.53;5.35;;;17.90;99.90;;;;;;5052592;28;20120;-77
2022/10/17 08:01:00;;;;;;;12.55;5.68;;;17.90;99.90;;;;;;5036730;28;20033;-78
2022/10/17 08:03:25;;;;;;;10.52;6.07;;;17.90;99.90;;;;;;5040511;28;20045;-78
2022/10/17 08:05:51;;;;;;;7.95;5.88;;;17.90;99.90;;;;;;5040698;28;20025;-77
2022/10/17 08:08:16;;;;;;;8.45;6.25;;;17.90;99.90;;;;;;5062506;28;20021;-77
2022/10/17 08:10:42;;;;;;;11.20;6.90;;;17.90;99.90;;;;;;5045914;28;20428;-78
2022/10/17 08:13:08;;;;;;;11.88;7.00;;;17.90;99.90;;;;;;5041872;28;20507;-77
2022/10/17 08:15:37;;;;;;;11.63;5.82;;;17.90;99.90;;;;;;5035757;28;20025;-81
2022/10/17 08:18:03;;;;;;;8.68;5.38;;;17.90;99.90;;;;;;5035976;28;20034;-79
2022/10/17 08:20:28;;;;;;;8.65;5.40;;;17.90;99.90;;;;;;5038319;28;20388;-79
2022/10/17 08:22:54;;;;;;;6.43;5.03;;;17.90;99.90;;;;;;5038112;28;20028;-77
2022/10/17 08:25:21;;;;;;;11.65;6.05;;;17.80;99.90;;;;;;5044121;28;20453;-76
2022/10/17 08:27:46;;;;;;;13.60;6.28;;;17.90;99.90;;;;;;5041365;28;20135;-81
2022/10/17 08:30:12;;;;;;;13.57;6.43;;;17.80;99.90;;;;;;5049092;28;20055;-82
2022/10/17 08:32:38;;;;;;;10.30;6.45;;;17.80;99.90;;;;;;5041669;28;20018;-78
2022/10/17 08:35:04;;;;;;;11.00;6.65;;;17.80;99.90;;;;;;5045593;28;20078;-78
2022/10/17 08:37:31;;;;;;;11.70;7.32;;;17.70;99.90;;;;;;5043570;28;20032;-78
2022/10/17 08:39:56;;;;;;;11.02;6.20;;;17.80;99.90;;;;;;5043043;28;20511;-77
2022/10/17 08:42:25;;;;;;;9.07;6.72;;;17.70;99.90;;;;;;5039789;28;20029;-77
2022/10/17 08:45:28;;;;;;;8.45;5.80;;;17.70;99.90;;;;;;5052505;28;20166;-76
2022/10/17 08:47:58;;;;;;;11.35;5.90;;;17.80;99.90;;;;;;5049190;28;20095;-76
2022/10/17 08:50:56;;;;;;;9.65;5.80;;;17.80;99.90;;;;;;5051290;28;20105;-76
2022/10/17 08:53:37;;;;;;;11.82;6.72;;;17.70;99.90;;;;;;5039510;28;20572;-77
2022/10/17 08:56:24;;;;;;;8.82;6.47;;;17.70;99.90;;;;;;5041862;28;20029;-76
2022/10/17 08:58:50;;;;;;;12.07;6.40;;;17.70;99.90;;;;;;5042414;28;20041;-76
2022/10/17 09:01:27;;;;;;;9.05;6.10;;;17.70;99.90;;;;;;5052231;28;20033;-76
2022/10/17 09:04:20;;;;;;;8.63;5.57;;;17.70;99.90;;;;;;5052809;28;20040;-74
2022/10/17 09:07:00;;;;;;;9.57;6.28;;;17.60;99.90;;;;;;5034776;28;20033;-77
2022/10/17 09:09:35;;;;;;;7.93;6.15;;;17.60;99.90;;;;;;5042528;28;20517;-75
2022/10/17 09:12:22;;;;;;;7.57;6.03;;;17.50;99.90;;;;;;5047846;28;20550;-79
2022/10/17 09:15:02;;;;;;;9.02;6.18;;;17.50;99.90;;;;;;5040266;28;20167;-80
2022/10/17 09:17:35;;;;;;;9.45;6.00;;;17.50;99.90;;;;;;5015020;28;20111;-79
2022/10/17 09:20:14;;;;;;;10.40;6.68;;;17.60;99.90;;;;;;5022976;28;20022;-79
2022/10/17 09:22:57;;;;;;;9.45;6.60;;;17.50;99.90;;;;;;5034762;28;20029;-79
2022/10/17 09:25:24;;;;;;;8.88;5.70;;;17.50;99.90;;;;;;5034718;28;20029;-80
2022/10/17 09:28:05;;;;;;;9.80;5.88;;;17.50;99.90;;;;;;5034514;28;20527;-80
2022/10/17 09:31:11;;;;;;;10.15;6.07;;;17.60;99.90;;;;;;5034713;28;20040;-77
2022/10/17 09:33:43;;;;;;;6.15;5.40;;;17.60;99.90;;;;;;5034277;28;20024;-78
2022/10/17 09:36:24;;;;;;;6.85;5.47;;;17.60;99.90;;;;;;5034337;28;20068;-77
2022/10/17 09:38:54;;;;;;;7.55;5.18;;;17.70;99.90;;;;;;5034634;28;20100;-78
2022/10/17 09:41:37;;;;;;;7.00;5.72;;;17.70;99.90;;;;;;5038433;28;20021;-78
2022/10/17 09:44:28;;;;;;;6.22;5.05;;;17.70;99.90;;;;;;5049887;28;20132;-77
2022/10/17 09:47:28;;;;;;;8.75;6.50;;;17.70;99.90;;;;;;5048126;28;20021;-78
2022/10/17 09:49:56;;;;;;;9.05;6.28;;;17.70;99.90;;;;;;5034171;28;20045;-79
2022/10/17 09:52:30;;;;;;;12.30;5.53;;;17.70;99.90;;;;;;5034715;28;20030;-78
2022/10/17 09:55:01;;;;;;;10.38;5.38;;;17.70;99.90;;;;;;5034279;28;20443;-77
2022/10/17 09:57:27;;;;;;;6.57;4.85;;;17.70;99.90;;;;;;5043374;28;20024;-77
2022/10/17 10:00:00;;;;;;;7.18;4.90;;;17.70;99.90;;;;;;5053682;28;20031;-74
2022/10/17 10:02:27;;;;;;;;;;;17.70;99.90;;;;;;5041518;28;20551;-77
2022/10/17 10:05:21;;;;;;;21.23;5.88;;;17.70;99.90;;;;;;5036243;28;19917;-77
2022/10/17 10:08:05;;;;;;;7.82;4.28;;;17.70;99.90;;;;;;5038993;28;20105;-78
2022/10/17 10:10:32;;;;;;;7.65;5.47;;;17.70;99.90;;;;;;5039825;28;20102;-77
2022/10/17 10:13:19;;;;;;;10.02;4.85;;;17.70;99.90;;;;;;5037129;28;20025;-76
2022/10/17 10:15:49;;;;;;;6.35;5.50;;;17.80;99.90;;;;;;5045904;28;20029;-77
2022/10/17 10:18:35;;;;;;;6.68;5.07;;;17.80;99.90;;;;;;5047394;28;20021;-77
2022/10/17 10:21:19;;;;;;;6.35;4.95;;;17.80;99.90;;;;;;5033425;28;20025;-76
2022/10/17 10:24:07;;;;;;;8.23;5.75;;;17.80;99.90;;;;;;5033294;28;20045;-76
2022/10/17 10:26:44;;;;;;;16.52;6.68;;;17.80;99.90;;;;;;5033271;28;20020;-76
2022/10/17 10:29:31;;;;;;;7.75;6.95;;;17.80;99.90;;;;;;5033243;28;20081;-77
2022/10/17 10:32:26;;;;;;;7.95;5.80;;;17.90;99.90;;;;;;5033746;28;20030;-77
2022/10/17 10:35:02;;;;;;;9.43;6.25;;;17.80;99.90;;;;;;5032967;28;20091;-79
2022/10/17 10:37:41;;;;;;;7.28;5.40;;;17.80;99.90;;;;;;5033281;28;20555;-79
2022/10/17 10:40:17;;;;;;;4.95;4.55;;;17.90;99.90;;;;;;5033567;28;20112;-75
2022/10/17 10:42:50;;;;;;;7.07;4.97;;;17.90;99.90;;;;;;5033694;28;20025;-78
2022/10/17 10:45:17;;;;;;;;;;;17.90;99.90;;;;;;5033953;28;20263;-77
2022/10/17 10:47:57;;;;;;;8.18;5.00;;;17.90;99.90;;;;;;5033344;28;19932;-77
2022/10/17 10:50:44;;;;;;;8.07;4.97;;;17.90;99.90;;;;;;5045109;28;20021;-76
2022/10/17 10:53:24;;;;;;;5.30;4.25;;;17.90;99.90;;;;;;5045193;28;20118;-76
2022/10/17 10:55:53;;;;;;;8.50;5.47;;;18.00;99.90;;;;;;5052682;28;20120;-75
2022/10/17 10:58:29;;;;;;;5.75;4.50;;;18.00;99.90;;;;;;5042209;28;20025;-76
2022/10/17 11:00:56;;;;;;;10.85;5.20;;;18.00;99.90;;;;;;5041723;28;20124;-77
2022/10/17 11:03:31;;;;;;;8.00;5.20;;;18.00;99.90;;;;;;5042162;28;20021;-77
2022/10/17 11:06:13;;;;;;;7.78;5.10;;;18.10;99.90;;;;;;5049896;28;20057;-77
2022/10/17 11:08:51;;;;;;;10.07;4.87;;;18.00;99.90;;;;;;5033817;28;20496;-77
2022/10/17 11:11:27;;;;;;;7.53;5.13;;;18.00;99.90;;;;;;5043398;28;20366;-76
2022/10/17 11:14:01;;;;;;;8.63;4.70;;;18.00;99.90;;;;;;5049103;28;20033;-76
2022/10/17 11:16:31;;;;;;;5.57;4.30;;;18.00;99.90;;;;;;5040486;28;20021;-78
2022/10/17 11:19:13;;;;;;;8.52;4.60;;;18.00;99.90;;;;;;5052282;28;20113;-77
2022/10/17 11:21:57;;;;;;;8.75;5.25;;;18.00;99.90;;;;;;5036565;28;20096;-76
2022/10/17 11:24:28;;;;;;;7.97;5.90;;;18.00;99.90;;;;;;5036178;28;20037;-78
2022/10/17 11:26:59;;;;;;;7.28;5.20;;;18.00;99.90;;;;;;5037789;28;20045;-77
2022/10/17 11:29:28;;;;;;;6.45;5.55;;;18.00;99.90;;;;;;5046207;28;20120;-77
2022/10/17 11:31:57;;;;;;;7.85;5.32;;;18.00;99.90;;;;;;5038913;28;20026;-76
2022/10/17 11:34:30;;;;;;;10.25;5.93;;;18.00;99.90;;;;;;5042429;28;20481;-75
2022/10/17 11:37:02;;;;;;;7.22;4.85;;;18.00;99.90;;;;;;5044969;28;20500;-75
2022/10/17 11:39:53;;;;;;;7.40;5.45;;;18.00;99.90;;;;;;5036801;28;20033;-75
2022/10/17 11:42:54;;;;;;;7.30;5.47;;;18.00;99.90;;;;;;5038449;28;20075;-75
2022/10/17 11:45:22;;;;;;;5.22;4.50;;;18.00;99.90;;;;;;5035651;28;20063;-75
2022/10/17 11:48:00;;;;;;;7.10;4.78;;;18.10;99.90;;;;;;5046843;28;20044;-77
2022/10/17 11:50:39;;;;;;;8.73;5.43;;;18.10;99.90;;;;;;5037312;28;20039;-73
2022/10/17 11:53:26;;;;;;;8.13;5.35;;;18.10;99.90;;;;;;5052894;28;20033;-76
2022/10/17 11:55:54;;;;;;;10.68;6.38;;;18.20;99.90;;;;;;5035976;28;21239;-76
2022/10/17 11:58:28;;;;;;;9.57;6.70;;;18.20;99.90;;;;;;5032433;28;20049;-75
2022/10/17 12:01:05;;;;;;;9.38;7.18;;;18.10;99.90;;;;;;5037234;28;20033;-75
2022/10/17 12:03:46;;;;;;;11.32;7.20;;;18.10;99.90;;;;;;5043695;28;20048;-76
2022/10/17 12:06:16;;;;;;;8.02;6.20;;;18.10;99.90;;;;;;5053814;28;20079;-77
2022/10/17 12:08:56;;;;;;;9.20;6.88;;;18.10;99.90;;;;;;5048016;28;20034;-76
2022/10/17 12:11:39;;;;;;;7.47;6.78;;;18.10;99.90;;;;;;5041063;28;20082;-75
2022/10/17 12:14:35;;;;;;;10.88;6.78;;;18.10;99.90;;;;;;5040571;28;20423;-76
2022/10/17 12:17:03;;;;;;;10.35;6.93;;;18.10;99.90;;;;;;5036890;28;20372;-76
2022/10/17 12:19:36;;;;;;;11.90;7.70;;;18.10;99.90;;;;;;5046690;28;20080;-76
2022/10/17 12:22:12;;;;;;;8.73;7.07;;;18.10;99.90;;;;;;5024664;28;20509;-76
2022/10/17 12:24:39;;;;;;;8.00;6.70;;;18.10;99.90;;;;;;5035822;28;20087;-75
2022/10/17 12:27:35;;;;;;;8.52;6.57;;;18.10;99.90;;;;;;5035189;28;20021;-76
2022/10/17 12:30:06;;;;;;;8.98;7.18;;;18.10;99.90;;;;;;5044370;28;20087;-77
2022/10/17 12:32:32;;;;;;;10.35;7.57;;;18.10;99.90;;;;;;5042736;28;20438;-76
2022/10/17 12:34:58;;;;;;;9.93;7.80;;;18.10;99.90;;;;;;5035821;28;20034;-76
2022/10/17 12:37:42;;;;;;;10.23;7.53;;;18.20;99.90;;;;;;5040087;28;20028;-76
2022/10/17 12:40:35;;;;;;;9.75;7.93;;;18.20;99.90;;;;;;5039251;28;20029;-77
2022/10/17 12:43:02;;;;;;;9.93;7.47;;;18.10;99.90;;;;;;5044314;28;20033;-77
2022/10/17 12:45:59;;;;;;;8.52;5.90;;;18.10;99.90;;;;;;5035006;28;20401;-74
2022/10/17 12:48:40;;;;;;;9.18;7.15;;;18.10;99.90;;;;;;5037912;28;20032;-71
2022/10/17 12:51:13;;;;;;;8.18;7.30;;;18.10;99.90;;;;;;5043884;28;20061;-74
2022/10/17 12:53:48;;;;;;;;;;;18.10;99.90;;;;;;5037490;28;20075;-74
2022/10/17 12:56:21;;;;;;;11.85;7.70;;;18.10;99.90;;;;;;5048188;28;19956;-74
2022/10/17 12:58:50;;;;;;;11.30;7.30;;;18.10;99.90;;;;;;5048724;28;20033;-75
2022/10/17 13:01:24;;;;;;;8.32;6.45;;;18.20;99.90;;;;;;5037234;28;20408;-79
2022/10/17 13:03:52;;;;;;;8.70;6.63;;;18.20;99.90;;;;;;5034455;28;20079;-78
2022/10/17 13:06:25;;;;;;;10.40;8.45;;;18.10;99.90;;;;;;5037378;28;20026;-77
2022/10/17 13:09:01;;;;;;;12.05;8.00;;;18.20;99.90;;;;;;5034489;28;20018;-76
2022/10/17 13:11:30;;;;;;;14.27;8.43;;;18.10;99.90;;;;;;5039393;28;20107;-76